Granville, Illinois
Current Conditions -  °F | °C
As of 5:55 PM on Saturday 22 Nov 2014 (Local Time) from KVYS Reporting Station
Overcast Overcast  
Wind Chill: 54°   Ceiling: 4800
Heat Index: 54°   Visibility: 10mi
Dew Point: 47°   Wind: 13mph
Humidity: 78%   Direction: 190°S
Pressure: 29.86"   Gusts: NA
Location:  41.26°N, 89.23°W
Report Text: KVYS 222355Z AUTO 19011KT 10SM SCT023 OVC048 12/08 A2986 RMK AO2 T01200083 10126 20092
Loading
Personal Weather Stations






























Interactive Weather Map New forecast layout! Learn more

10-Day Weather Forecast

Advertisements
Track Severe Weather on mobile